sensor_id;sensor_type;location;lat;lon;timestamp;pressure;altitude;pressure_sealevel;temperature;humidity
4449;BME280;2237;51.870;6.160;2022-08-03T00:01:49;101375.00;;;24.92;62.03
4449;BME280;2237;51.870;6.160;2022-08-03T00:04:15;101371.81;;;24.87;61.64
4449;BME280;2237;51.870;6.160;2022-08-03T00:06:42;101372.16;;;24.83;62.18
4449;BME280;2237;51.870;6.160;2022-08-03T00:09:09;101371.47;;;24.79;62.45
4449;BME280;2237;51.870;6.160;2022-08-03T00:11:35;101371.09;;;24.72;62.47
4449;BME280;2237;51.870;6.160;2022-08-03T00:14:05;101352.91;;;24.66;62.59
4449;BME280;2237;51.870;6.160;2022-08-03T00:16:32;101366.31;;;24.65;63.01
4449;BME280;2237;51.870;6.160;2022-08-03T00:19:00;101367.28;;;24.64;62.80
4449;BME280;2237;51.870;6.160;2022-08-03T00:21:27;101361.53;;;24.57;63.11
4449;BME280;2237;51.870;6.160;2022-08-03T00:23:54;101362.63;;;24.55;62.99
4449;BME280;2237;51.870;6.160;2022-08-03T00:26:21;101361.75;;;24.54;63.24
4449;BME280;2237;51.870;6.160;2022-08-03T00:28:48;101361.34;;;24.48;63.02
4449;BME280;2237;51.870;6.160;2022-08-03T00:31:14;101362.50;;;24.44;63.36
4449;BME280;2237;51.870;6.160;2022-08-03T00:33:41;101365.19;;;24.44;63.46
4449;BME280;2237;51.870;6.160;2022-08-03T00:36:28;101359.13;;;24.42;63.42
4449;BME280;2237;51.870;6.160;2022-08-03T00:38:54;101365.31;;;24.42;63.06
4449;BME280;2237;51.870;6.160;2022-08-03T00:41:21;101372.66;;;24.39;63.51
4449;BME280;2237;51.870;6.160;2022-08-03T00:43:48;101371.06;;;24.36;63.73
4449;BME280;2237;51.870;6.160;2022-08-03T00:46:14;101369.69;;;24.31;63.87
4449;BME280;2237;51.870;6.160;2022-08-03T00:48:48;101369.81;;;24.29;63.54
4449;BME280;2237;51.870;6.160;2022-08-03T00:51:15;101357.97;;;24.21;64.02
4449;BME280;2237;51.870;6.160;2022-08-03T00:53:41;101358.94;;;24.20;64.03
4449;BME280;2237;51.870;6.160;2022-08-03T00:56:11;101360.75;;;24.19;63.91
4449;BME280;2237;51.870;6.160;2022-08-03T00:58:37;101361.31;;;24.11;64.27
4449;BME280;2237;51.870;6.160;2022-08-03T01:01:04;101353.72;;;24.05;64.30
4449;BME280;2237;51.870;6.160;2022-08-03T01:03:32;101359.25;;;24.02;64.88
4449;BME280;2237;51.870;6.160;2022-08-03T01:06:06;101361.06;;;24.02;64.67
4449;BME280;2237;51.870;6.160;2022-08-03T01:09:22;101360.41;;;23.98;65.12
4449;BME280;2237;51.870;6.160;2022-08-03T01:14:43;101350.53;;;23.88;65.61
4449;BME280;2237;51.870;6.160;2022-08-03T01:17:19;101356.91;;;23.85;65.47
4449;BME280;2237;51.870;6.160;2022-08-03T01:20:07;101354.56;;;23.81;65.87
4449;BME280;2237;51.870;6.160;2022-08-03T01:22:56;101349.78;;;23.73;66.33
4449;BME280;2237;51.870;6.160;2022-08-03T01:25:49;101349.03;;;23.71;66.56
4449;BME280;2237;51.870;6.160;2022-08-03T01:31:47;101347.75;;;23.64;66.60
4449;BME280;2237;51.870;6.160;2022-08-03T01:34:44;101348.59;;;23.65;66.76
4449;BME280;2237;51.870;6.160;2022-08-03T01:37:15;101349.75;;;23.60;66.96
4449;BME280;2237;51.870;6.160;2022-08-03T01:39:44;101340.50;;;23.53;67.07
4449;BME280;2237;51.870;6.160;2022-08-03T01:42:13;101348.56;;;23.52;67.59
4449;BME280;2237;51.870;6.160;2022-08-03T01:44:41;101339.22;;;23.46;67.77
4449;BME280;2237;51.870;6.160;2022-08-03T01:47:10;101337.28;;;23.48;67.86
4449;BME280;2237;51.870;6.160;2022-08-03T01:49:39;101339.22;;;23.46;67.94
4449;BME280;2237;51.870;6.160;2022-08-03T01:52:10;101337.50;;;23.45;68.12
4449;BME280;2237;51.870;6.160;2022-08-03T01:54:42;101327.06;;;23.42;67.97
4449;BME280;2237;51.870;6.160;2022-08-03T01:57:09;101325.47;;;23.40;67.93
4449;BME280;2237;51.870;6.160;2022-08-03T01:59:37;101329.16;;;23.37;68.31
4449;BME280;2237;51.870;6.160;2022-08-03T02:02:04;101335.66;;;23.33;68.62
4449;BME280;2237;51.870;6.160;2022-08-03T02:04:54;101333.28;;;23.29;68.89
4449;BME280;2237;51.870;6.160;2022-08-03T02:07:22;101334.47;;;23.25;68.88
4449;BME280;2237;51.870;6.160;2022-08-03T02:09:51;101337.75;;;23.28;68.84
4449;BME280;2237;51.870;6.160;2022-08-03T02:12:21;101327.44;;;23.24;69.09
4449;BME280;2237;51.870;6.160;2022-08-03T02:14:49;101332.09;;;23.20;69.19
4449;BME280;2237;51.870;6.160;2022-08-03T02:17:17;101335.63;;;23.21;69.38
4449;BME280;2237;51.870;6.160;2022-08-03T02:20:05;101326.03;;;23.18;69.98
4449;BME280;2237;51.870;6.160;2022-08-03T02:22:32;101331.44;;;23.17;70.05
4449;BME280;2237;51.870;6.160;2022-08-03T02:25:00;101328.38;;;23.10;70.55
4449;BME280;2237;51.870;6.160;2022-08-03T02:27:28;101330.38;;;23.06;70.81
4449;BME280;2237;51.870;6.160;2022-08-03T02:30:02;101320.78;;;23.04;70.80
4449;BME280;2237;51.870;6.160;2022-08-03T02:32:39;101330.66;;;23.02;71.39
4449;BME280;2237;51.870;6.160;2022-08-03T02:35:10;101322.06;;;22.98;71.70
4449;BME280;2237;51.870;6.160;2022-08-03T02:37:42;101332.03;;;22.95;72.04
4449;BME280;2237;51.870;6.160;2022-08-03T02:40:17;101316.94;;;22.95;71.96
4449;BME280;2237;51.870;6.160;2022-08-03T02:42:45;101330.22;;;22.95;72.09
4449;BME280;2237;51.870;6.160;2022-08-03T02:45:15;101324.91;;;22.95;72.30
4449;BME280;2237;51.870;6.160;2022-08-03T02:47:44;101323.09;;;22.96;72.29
4449;BME280;2237;51.870;6.160;2022-08-03T02:50:20;101316.94;;;22.95;72.06
4449;BME280;2237;51.870;6.160;2022-08-03T02:52:48;101314.50;;;22.92;72.55
4449;BME280;2237;51.870;6.160;2022-08-03T02:55:18;101315.63;;;22.88;72.34
4449;BME280;2237;51.870;6.160;2022-08-03T02:57:46;101315.63;;;22.88;72.45
4449;BME280;2237;51.870;6.160;2022-08-03T03:00:14;101311.47;;;22.84;72.60
4449;BME280;2237;51.870;6.160;2022-08-03T03:02:56;101304.53;;;22.82;72.64
4449;BME280;2237;51.870;6.160;2022-08-03T03:05:23;101315.16;;;22.82;72.61
4449;BME280;2237;51.870;6.160;2022-08-03T03:08:12;101309.19;;;22.78;73.05
4449;BME280;2237;51.870;6.160;2022-08-03T03:10:46;101311.22;;;22.75;73.50
4449;BME280;2237;51.870;6.160;2022-08-03T03:13:14;101305.25;;;22.71;73.55
4449;BME280;2237;51.870;6.160;2022-08-03T03:15:42;101310.66;;;22.70;73.94
4449;BME280;2237;51.870;6.160;2022-08-03T03:18:09;101308.78;;;22.72;73.54
4449;BME280;2237;51.870;6.160;2022-08-03T03:20:37;101312.28;;;22.72;73.58
4449;BME280;2237;51.870;6.160;2022-08-03T03:23:07;101311.50;;;22.70;73.55
4449;BME280;2237;51.870;6.160;2022-08-03T03:25:34;101316.75;;;22.72;73.98
4449;BME280;2237;51.870;6.160;2022-08-03T03:28:01;101317.13;;;22.66;73.64
4449;BME280;2237;51.870;6.160;2022-08-03T03:30:32;101319.09;;;22.62;73.86
4449;BME280;2237;51.870;6.160;2022-08-03T03:32:58;101319.28;;;22.59;74.60
4449;BME280;2237;51.870;6.160;2022-08-03T03:35:26;101317.41;;;22.47;75.33
4449;BME280;2237;51.870;6.160;2022-08-03T03:37:52;101324.81;;;22.42;75.67
4449;BME280;2237;51.870;6.160;2022-08-03T03:40:20;101307.56;;;22.35;76.36
4449;BME280;2237;51.870;6.160;2022-08-03T03:42:46;101315.06;;;22.42;76.21
4449;BME280;2237;51.870;6.160;2022-08-03T03:45:13;101320.47;;;22.41;76.19
4449;BME280;2237;51.870;6.160;2022-08-03T03:47:40;101317.91;;;22.39;76.50
4449;BME280;2237;51.870;6.160;2022-08-03T03:50:07;101313.66;;;22.37;76.44
4449;BME280;2237;51.870;6.160;2022-08-03T03:52:36;101318.78;;;22.40;76.09
4449;BME280;2237;51.870;6.160;2022-08-03T03:55:02;101313.47;;;22.40;76.47
4449;BME280;2237;51.870;6.160;2022-08-03T03:57:29;101302.75;;;22.41;76.10
4449;BME280;2237;51.870;6.160;2022-08-03T03:59:55;101310.81;;;22.40;76.43
4449;BME280;2237;51.870;6.160;2022-08-03T04:02:22;101318.13;;;22.36;76.58
4449;BME280;2237;51.870;6.160;2022-08-03T04:04:48;101315.72;;;22.32;77.11
4449;BME280;2237;51.870;6.160;2022-08-03T04:07:43;101316.78;;;22.29;77.66
4449;BME280;2237;51.870;6.160;2022-08-03T04:10:32;101316.91;;;22.28;77.52
4449;BME280;2237;51.870;6.160;2022-08-03T04:13:19;101314.44;;;22.25;77.63
4449;BME280;2237;51.870;6.160;2022-08-03T04:15:47;101320.59;;;22.25;78.19
4449;BME280;2237;51.870;6.160;2022-08-03T04:18:15;101314.31;;;22.26;77.97
4449;BME280;2237;51.870;6.160;2022-08-03T04:20:46;101313.31;;;22.29;78.05
4449;BME280;2237;51.870;6.160;2022-08-03T04:23:15;101319.16;;;22.34;77.77
4449;BME280;2237;51.870;6.160;2022-08-03T04:25:43;101320.03;;;22.34;77.88
4449;BME280;2237;51.870;6.160;2022-08-03T04:28:11;101324.47;;;22.34;77.72
4449;BME280;2237;51.870;6.160;2022-08-03T04:30:58;101324.56;;;22.32;78.24
4449;BME280;2237;51.870;6.160;2022-08-03T04:33:26;101329.00;;;22.32;78.32
4449;BME280;2237;51.870;6.160;2022-08-03T04:35:57;101325.22;;;22.36;78.23
4449;BME280;2237;51.870;6.160;2022-08-03T04:38:36;101324.28;;;22.37;78.33
4449;BME280;2237;51.870;6.160;2022-08-03T04:41:04;101330.34;;;22.39;78.64
4449;BME280;2237;51.870;6.160;2022-08-03T04:43:32;101328.16;;;22.45;78.40
4449;BME280;2237;51.870;6.160;2022-08-03T04:46:00;101329.63;;;22.49;78.05
4449;BME280;2237;51.870;6.160;2022-08-03T04:48:28;101328.03;;;22.47;78.60
4449;BME280;2237;51.870;6.160;2022-08-03T04:50:54;101328.22;;;22.44;78.60
4449;BME280;2237;51.870;6.160;2022-08-03T04:53:21;101329.41;;;22.40;79.38
4449;BME280;2237;51.870;6.160;2022-08-03T04:55:48;101331.19;;;22.39;79.79
4449;BME280;2237;51.870;6.160;2022-08-03T04:58:15;101327.69;;;22.39;79.70
4449;BME280;2237;51.870;6.160;2022-08-03T05:00:41;101331.94;;;22.41;79.43
4449;BME280;2237;51.870;6.160;2022-08-03T05:03:08;101332.47;;;22.46;79.64
4449;BME280;2237;51.870;6.160;2022-08-03T05:05:49;101334.50;;;22.43;80.32
4449;BME280;2237;51.870;6.160;2022-08-03T05:08:16;101334.97;;;22.35;80.38
4449;BME280;2237;51.870;6.160;2022-08-03T05:10:53;101336.97;;;22.32;81.15
4449;BME280;2237;51.870;6.160;2022-08-03T05:13:19;101331.28;;;22.38;80.59
4449;BME280;2237;51.870;6.160;2022-08-03T05:15:46;101340.94;;;22.39;80.38
4449;BME280;2237;51.870;6.160;2022-08-03T05:18:12;101340.75;;;22.42;80.46
4449;BME280;2237;51.870;6.160;2022-08-03T05:20:40;101346.38;;;22.37;80.45
4449;BME280;2237;51.870;6.160;2022-08-03T05:23:06;101345.19;;;22.41;81.09
4449;BME280;2237;51.870;6.160;2022-08-03T05:25:33;101347.00;;;22.41;81.18
4449;BME280;2237;51.870;6.160;2022-08-03T05:27:59;101349.78;;;22.39;81.23
4449;BME280;2237;51.870;6.160;2022-08-03T05:30:26;101356.50;;;22.45;81.40
4449;BME280;2237;51.870;6.160;2022-08-03T05:33:00;101343.41;;;22.42;81.07
4449;BME280;2237;51.870;6.160;2022-08-03T05:35:27;101354.38;;;22.50;81.27
4449;BME280;2237;51.870;6.160;2022-08-03T05:38:15;101360.25;;;22.55;80.92
4449;BME280;2237;51.870;6.160;2022-08-03T05:40:55;101356.09;;;22.51;80.84
4449;BME280;2237;51.870;6.160;2022-08-03T05:43:23;101357.31;;;22.60;80.66
4449;BME280;2237;51.870;6.160;2022-08-03T05:45:49;101354.00;;;22.70;79.91
4449;BME280;2237;51.870;6.160;2022-08-03T05:48:36;101355.31;;;22.63;80.12
4449;BME280;2237;51.870;6.160;2022-08-03T05:51:02;101352.50;;;22.66;80.24
4449;BME280;2237;51.870;6.160;2022-08-03T05:53:32;101354.66;;;22.74;79.74
4449;BME280;2237;51.870;6.160;2022-08-03T05:55:59;101354.78;;;22.72;79.33
4449;BME280;2237;51.870;6.160;2022-08-03T05:58:40;101353.34;;;22.67;80.15
4449;BME280;2237;51.870;6.160;2022-08-03T06:01:07;101357.63;;;22.69;80.24
4449;BME280;2237;51.870;6.160;2022-08-03T06:03:33;101364.06;;;22.65;80.53
4449;BME280;2237;51.870;6.160;2022-08-03T06:06:00;101366.53;;;22.68;80.30
4449;BME280;2237;51.870;6.160;2022-08-03T06:08:26;101368.78;;;22.74;79.62
4449;BME280;2237;51.870;6.160;2022-08-03T06:10:53;101366.81;;;22.78;79.15
4449;BME280;2237;51.870;6.160;2022-08-03T06:13:20;101354.72;;;22.86;78.84
4449;BME280;2237;51.870;6.160;2022-08-03T06:15:47;101360.38;;;22.94;77.77
4449;BME280;2237;51.870;6.160;2022-08-03T06:18:13;101367.00;;;23.01;77.17
4449;BME280;2237;51.870;6.160;2022-08-03T06:20:39;101366.72;;;23.06;76.71
4449;BME280;2237;51.870;6.160;2022-08-03T06:23:06;101369.31;;;23.20;76.33
4449;BME280;2237;51.870;6.160;2022-08-03T06:25:41;101373.91;;;23.31;75.84
4449;BME280;2237;51.870;6.160;2022-08-03T06:28:08;101368.03;;;23.26;74.79
4449;BME280;2237;51.870;6.160;2022-08-03T06:30:49;101368.25;;;23.23;74.76
4449;BME280;2237;51.870;6.160;2022-08-03T06:33:15;101367.63;;;23.32;74.08
4449;BME280;2237;51.870;6.160;2022-08-03T06:35:42;101380.44;;;23.39;74.03
4449;BME280;2237;51.870;6.160;2022-08-03T06:38:10;101372.38;;;23.41;73.46
4449;BME280;2237;51.870;6.160;2022-08-03T06:40:38;101378.63;;;23.40;72.72
4449;BME280;2237;51.870;6.160;2022-08-03T06:43:08;101364.84;;;23.47;72.72
4449;BME280;2237;51.870;6.160;2022-08-03T06:45:38;101376.00;;;23.52;71.70
4449;BME280;2237;51.870;6.160;2022-08-03T06:48:09;101376.75;;;23.54;71.31
4449;BME280;2237;51.870;6.160;2022-08-03T06:50:37;101375.69;;;23.57;70.57
4449;BME280;2237;51.870;6.160;2022-08-03T06:53:04;101384.75;;;23.67;70.21
4449;BME280;2237;51.870;6.160;2022-08-03T06:55:31;101380.72;;;23.61;70.16
4449;BME280;2237;51.870;6.160;2022-08-03T06:57:57;101383.16;;;23.65;69.78
4449;BME280;2237;51.870;6.160;2022-08-03T07:00:28;101376.59;;;23.70;69.81
4449;BME280;2237;51.870;6.160;2022-08-03T07:02:56;101380.38;;;23.66;70.00
4449;BME280;2237;51.870;6.160;2022-08-03T07:05:24;101380.41;;;23.79;69.91
4449;BME280;2237;51.870;6.160;2022-08-03T07:07:54;101383.59;;;23.84;68.98
4449;BME280;2237;51.870;6.160;2022-08-03T07:10:20;101378.50;;;23.93;68.54
4449;BME280;2237;51.870;6.160;2022-08-03T07:12:47;101379.25;;;23.95;68.24
4449;BME280;2237;51.870;6.160;2022-08-03T07:15:22;101378.38;;;23.95;67.85
4449;BME280;2237;51.870;6.160;2022-08-03T07:18:08;101373.50;;;24.01;67.69
4449;BME280;2237;51.870;6.160;2022-08-03T07:20:35;101384.66;;;24.06;67.83
4449;BME280;2237;51.870;6.160;2022-08-03T07:23:01;101379.09;;;24.11;67.15
4449;BME280;2237;51.870;6.160;2022-08-03T07:25:28;101389.19;;;24.31;67.20
4449;BME280;2237;51.870;6.160;2022-08-03T07:27:54;101379.25;;;24.46;66.28
4449;BME280;2237;51.870;6.160;2022-08-03T07:30:21;101387.75;;;24.51;65.37
4449;BME280;2237;51.870;6.160;2022-08-03T07:32:48;101387.75;;;24.51;64.93
4449;BME280;2237;51.870;6.160;2022-08-03T07:35:16;101386.25;;;24.59;64.34
4449;BME280;2237;51.870;6.160;2022-08-03T07:37:51;101390.91;;;24.68;63.90
4449;BME280;2237;51.870;6.160;2022-08-03T07:40:20;101389.31;;;24.66;63.49
4449;BME280;2237;51.870;6.160;2022-08-03T07:42:57;101393.66;;;24.67;63.13
4449;BME280;2237;51.870;6.160;2022-08-03T07:45:24;101394.00;;;24.75;62.75
4449;BME280;2237;51.870;6.160;2022-08-03T07:47:51;101393.00;;;24.76;62.25
4449;BME280;2237;51.870;6.160;2022-08-03T07:50:19;101389.22;;;24.80;62.50
4449;BME280;2237;51.870;6.160;2022-08-03T07:52:45;101383.00;;;24.92;61.78
4449;BME280;2237;51.870;6.160;2022-08-03T07:55:23;101390.63;;;24.97;61.20
4449;BME280;2237;51.870;6.160;2022-08-03T07:58:06;101387.13;;;24.96;60.93
4449;BME280;2237;51.870;6.160;2022-08-03T08:00:35;101388.25;;;25.05;60.61
4449;BME280;2237;51.870;6.160;2022-08-03T08:03:02;101391.59;;;25.19;60.77
4449;BME280;2237;51.870;6.160;2022-08-03T08:05:29;101381.50;;;25.36;60.04
4449;BME280;2237;51.870;6.160;2022-08-03T08:07:56;101391.72;;;25.42;59.97
4449;BME280;2237;51.870;6.160;2022-08-03T08:10:22;101385.41;;;25.43;59.98
4449;BME280;2237;51.870;6.160;2022-08-03T08:12:49;101381.66;;;25.45;59.16
4449;BME280;2237;51.870;6.160;2022-08-03T08:15:15;101381.84;;;25.55;58.09
4449;BME280;2237;51.870;6.160;2022-08-03T08:17:49;101384.16;;;25.59;58.06
4449;BME280;2237;51.870;6.160;2022-08-03T08:20:18;101384.88;;;25.50;58.02
4449;BME280;2237;51.870;6.160;2022-08-03T08:22:57;101391.81;;;25.40;58.46
4449;BME280;2237;51.870;6.160;2022-08-03T08:25:26;101389.53;;;25.47;58.31
4449;BME280;2237;51.870;6.160;2022-08-03T08:27:53;101389.44;;;25.48;57.72
4449;BME280;2237;51.870;6.160;2022-08-03T08:30:40;101384.88;;;25.50;57.04
4449;BME280;2237;51.870;6.160;2022-08-03T08:33:06;101381.28;;;25.62;57.23
4449;BME280;2237;51.870;6.160;2022-08-03T08:35:48;101383.94;;;25.62;56.99
4449;BME280;2237;51.870;6.160;2022-08-03T08:38:14;101381.38;;;25.61;57.35
4449;BME280;2237;51.870;6.160;2022-08-03T08:40:40;101391.09;;;25.62;57.62
4449;BME280;2237;51.870;6.160;2022-08-03T08:43:07;101396.53;;;25.60;56.01
4449;BME280;2237;51.870;6.160;2022-08-03T08:45:33;101390.25;;;25.72;56.36
4449;BME280;2237;51.870;6.160;2022-08-03T08:48:01;101392.59;;;25.88;56.27
4449;BME280;2237;51.870;6.160;2022-08-03T08:50:34;101389.72;;;26.02;56.00
4449;BME280;2237;51.870;6.160;2022-08-03T08:53:02;101387.06;;;26.13;56.21
4449;BME280;2237;51.870;6.160;2022-08-03T08:55:35;101391.22;;;26.17;55.11
4449;BME280;2237;51.870;6.160;2022-08-03T08:58:21;101390.13;;;26.20;55.26
4449;BME280;2237;51.870;6.160;2022-08-03T09:00:49;101392.94;;;26.29;54.83
4449;BME280;2237;51.870;6.160;2022-08-03T09:03:16;101395.59;;;26.41;54.47
4449;BME280;2237;51.870;6.160;2022-08-03T09:05:54;101392.06;;;26.51;53.43
4449;BME280;2237;51.870;6.160;2022-08-03T09:08:21;101392.53;;;26.56;51.73
4449;BME280;2237;51.870;6.160;2022-08-03T09:10:48;101391.09;;;26.52;52.06
4449;BME280;2237;51.870;6.160;2022-08-03T09:13:15;101388.78;;;26.59;52.08
4449;BME280;2237;51.870;6.160;2022-08-03T09:15:41;101391.44;;;26.70;51.78
4449;BME280;2237;51.870;6.160;2022-08-03T09:18:28;101390.09;;;26.75;51.45
4449;BME280;2237;51.870;6.160;2022-08-03T09:21:25;101391.47;;;26.81;50.71
4449;BME280;2237;51.870;6.160;2022-08-03T09:24:02;101385.22;;;26.91;50.28
4449;BME280;2237;51.870;6.160;2022-08-03T09:26:33;101394.75;;;26.84;49.78
4449;BME280;2237;51.870;6.160;2022-08-03T09:29:05;101395.22;;;26.89;49.41
4449;BME280;2237;51.870;6.160;2022-08-03T09:31:42;101388.63;;;26.93;49.13
4449;BME280;2237;51.870;6.160;2022-08-03T09:34:12;101383.50;;;27.02;48.96
4449;BME280;2237;51.870;6.160;2022-08-03T09:36:49;101388.47;;;27.06;49.01
4449;BME280;2237;51.870;6.160;2022-08-03T09:39:21;101389.19;;;27.19;49.02
4449;BME280;2237;51.870;6.160;2022-08-03T09:44:45;101379.84;;;27.45;48.33
4449;BME280;2237;51.870;6.160;2022-08-03T09:47:14;101392.38;;;27.45;47.24
4449;BME280;2237;51.870;6.160;2022-08-03T09:49:58;101381.16;;;27.51;46.54
4449;BME280;2237;51.870;6.160;2022-08-03T09:52:37;101385.66;;;27.71;46.10
4449;BME280;2237;51.870;6.160;2022-08-03T09:55:17;101393.91;;;27.79;45.41
4449;BME280;2237;51.870;6.160;2022-08-03T09:58:06;101386.13;;;27.76;45.48
4449;BME280;2237;51.870;6.160;2022-08-03T10:00:52;101393.22;;;27.87;45.31
4449;BME280;2237;51.870;6.160;2022-08-03T10:03:20;101395.53;;;27.91;45.70
4449;BME280;2237;51.870;6.160;2022-08-03T10:05:47;101378.59;;;27.91;44.89
4449;BME280;2237;51.870;6.160;2022-08-03T10:08:14;101389.38;;;28.00;44.12
4449;BME280;2237;51.870;6.160;2022-08-03T10:10:42;101393.03;;;27.99;43.97
4449;BME280;2237;51.870;6.160;2022-08-03T10:13:12;101393.38;;;28.06;43.88
4449;BME280;2237;51.870;6.160;2022-08-03T10:15:39;101382.97;;;28.13;43.68
4449;BME280;2237;51.870;6.160;2022-08-03T10:18:26;101387.25;;;28.15;43.72
4449;BME280;2237;51.870;6.160;2022-08-03T10:20:54;101387.53;;;28.22;43.68
4449;BME280;2237;51.870;6.160;2022-08-03T10:23:24;101381.03;;;28.24;43.46
4449;BME280;2237;51.870;6.160;2022-08-03T10:25:54;101385.22;;;28.38;43.39
4449;BME280;2237;51.870;6.160;2022-08-03T10:28:23;101374.41;;;28.49;43.29
4449;BME280;2237;51.870;6.160;2022-08-03T10:30:52;101372.44;;;28.60;42.69
4449;BME280;2237;51.870;6.160;2022-08-03T10:33:23;101374.63;;;28.67;42.56
4449;BME280;2237;51.870;6.160;2022-08-03T10:36:09;101364.59;;;28.69;42.27
4449;BME280;2237;51.870;6.160;2022-08-03T10:38:48;101365.22;;;28.82;42.76
4449;BME280;2237;51.870;6.160;2022-08-03T10:41:23;101368.19;;;29.07;42.48
4449;BME280;2237;51.870;6.160;2022-08-03T10:44:12;101365.50;;;29.17;42.04
4449;BME280;2237;51.870;6.160;2022-08-03T10:46:42;101368.06;;;29.19;41.53
4449;BME280;2237;51.870;6.160;2022-08-03T10:49:15;101357.78;;;29.24;41.17
4449;BME280;2237;51.870;6.160;2022-08-03T10:52:01;101354.38;;;29.22;40.32
4449;BME280;2237;51.870;6.160;2022-08-03T10:54:43;101358.19;;;29.19;40.24
4449;BME280;2237;51.870;6.160;2022-08-03T10:57:52;101348.16;;;29.02;40.98
4449;BME280;2237;51.870;6.160;2022-08-03T11:00:25;101350.97;;;29.10;40.22
4449;BME280;2237;51.870;6.160;2022-08-03T11:05:34;101354.06;;;29.15;40.86
4449;BME280;2237;51.870;6.160;2022-08-03T11:10:43;101342.78;;;29.21;40.03
4449;BME280;2237;51.870;6.160;2022-08-03T11:13:14;101352.81;;;29.19;40.13
4449;BME280;2237;51.870;6.160;2022-08-03T11:15:44;101343.50;;;29.23;39.83
4449;BME280;2237;51.870;6.160;2022-08-03T11:18:12;101337.75;;;29.28;39.70
4449;BME280;2237;51.870;6.160;2022-08-03T11:20:53;101345.47;;;29.50;40.07
4449;BME280;2237;51.870;6.160;2022-08-03T11:23:44;101335.81;;;29.66;39.92
4449;BME280;2237;51.870;6.160;2022-08-03T11:26:29;101333.13;;;29.66;39.43
4449;BME280;2237;51.870;6.160;2022-08-03T11:29:37;101335.53;;;29.69;39.42
4449;BME280;2237;51.870;6.160;2022-08-03T11:32:02;101333.44;;;29.83;39.38
4449;BME280;2237;51.870;6.160;2022-08-03T11:34:28;101325.19;;;29.94;39.07
4449;BME280;2237;51.870;6.160;2022-08-03T11:37:18;101332.84;;;29.89;38.98
4449;BME280;2237;51.870;6.160;2022-08-03T11:39:47;101332.25;;;29.95;38.88
4449;BME280;2237;51.870;6.160;2022-08-03T11:44:52;101324.94;;;30.24;38.62
4449;BME280;2237;51.870;6.160;2022-08-03T11:47:19;101329.03;;;30.18;38.56
4449;BME280;2237;51.870;6.160;2022-08-03T11:49:47;101332.28;;;30.22;37.95
4449;BME280;2237;51.870;6.160;2022-08-03T11:52:17;101332.94;;;30.34;38.08
4449;BME280;2237;51.870;6.160;2022-08-03T11:54:53;101338.78;;;30.56;38.18
4449;BME280;2237;51.870;6.160;2022-08-03T11:57:32;101332.50;;;30.65;36.60
4449;BME280;2237;51.870;6.160;2022-08-03T12:00:19;101335.72;;;30.69;37.11
4449;BME280;2237;51.870;6.160;2022-08-03T12:02:56;101336.97;;;30.74;38.06
4449;BME280;2237;51.870;6.160;2022-08-03T12:08:08;101343.50;;;30.99;36.65
4449;BME280;2237;51.870;6.160;2022-08-03T12:10:36;101336.41;;;30.98;36.44
4449;BME280;2237;51.870;6.160;2022-08-03T12:13:04;101332.13;;;31.05;36.45
4449;BME280;2237;51.870;6.160;2022-08-03T12:15:54;101348.59;;;30.93;36.50
4449;BME280;2237;51.870;6.160;2022-08-03T12:18:22;101335.38;;;30.82;37.00
4449;BME280;2237;51.870;6.160;2022-08-03T12:20:50;101330.47;;;30.95;36.24
4449;BME280;2237;51.870;6.160;2022-08-03T12:23:17;101332.94;;;31.23;36.33
4449;BME280;2237;51.870;6.160;2022-08-03T12:25:45;101335.22;;;31.36;35.69
4449;BME280;2237;51.870;6.160;2022-08-03T12:31:07;101335.38;;;31.52;36.05
4449;BME280;2237;51.870;6.160;2022-08-03T12:34:00;101336.44;;;31.59;35.43
4449;BME280;2237;51.870;6.160;2022-08-03T12:36:32;101330.13;;;31.68;35.58
4449;BME280;2237;51.870;6.160;2022-08-03T12:39:04;101338.38;;;31.49;34.82
4449;BME280;2237;51.870;6.160;2022-08-03T12:41:39;101332.00;;;31.32;34.97
4449;BME280;2237;51.870;6.160;2022-08-03T12:44:07;101326.91;;;31.47;34.93
4449;BME280;2237;51.870;6.160;2022-08-03T12:46:36;101341.31;;;31.56;34.66
4449;BME280;2237;51.870;6.160;2022-08-03T12:49:07;101340.34;;;31.65;35.24
4449;BME280;2237;51.870;6.160;2022-08-03T12:54:09;101339.09;;;31.77;34.61
4449;BME280;2237;51.870;6.160;2022-08-03T12:57:06;101346.50;;;31.75;33.27
4449;BME280;2237;51.870;6.160;2022-08-03T12:59:44;101338.09;;;31.78;33.28
4449;BME280;2237;51.870;6.160;2022-08-03T13:02:22;101342.66;;;31.77;33.49
4449;BME280;2237;51.870;6.160;2022-08-03T13:04:50;101335.41;;;31.78;33.08
4449;BME280;2237;51.870;6.160;2022-08-03T13:07:18;101336.19;;;31.70;34.05
4449;BME280;2237;51.870;6.160;2022-08-03T13:09:49;101334.16;;;31.72;33.71
4449;BME280;2237;51.870;6.160;2022-08-03T13:12:20;101329.75;;;31.89;33.65
4449;BME280;2237;51.870;6.160;2022-08-03T13:14:49;101338.47;;;31.57;33.77
4449;BME280;2237;51.870;6.160;2022-08-03T13:17:15;101334.59;;;31.60;34.32
4449;BME280;2237;51.870;6.160;2022-08-03T13:19:42;101333.22;;;31.81;33.74
4449;BME280;2237;51.870;6.160;2022-08-03T13:22:22;101326.91;;;31.99;33.47
4449;BME280;2237;51.870;6.160;2022-08-03T13:24:53;101329.22;;;32.11;33.54
4449;BME280;2237;51.870;6.160;2022-08-03T13:27:24;101329.13;;;32.29;32.35
4449;BME280;2237;51.870;6.160;2022-08-03T13:30:11;101324.78;;;32.36;33.19
4449;BME280;2237;51.870;6.160;2022-08-03T13:32:37;101328.03;;;32.48;32.88
4449;BME280;2237;51.870;6.160;2022-08-03T13:35:04;101327.38;;;32.12;32.65
4449;BME280;2237;51.870;6.160;2022-08-03T13:37:32;101325.44;;;32.30;32.88
4449;BME280;2237;51.870;6.160;2022-08-03T13:39:59;101330.56;;;32.49;32.43
4449;BME280;2237;51.870;6.160;2022-08-03T13:42:29;101324.25;;;32.32;32.17
4449;BME280;2237;51.870;6.160;2022-08-03T13:44:57;101319.63;;;32.17;33.02
4449;BME280;2237;51.870;6.160;2022-08-03T13:47:24;101324.09;;;32.42;31.97
4449;BME280;2237;51.870;6.160;2022-08-03T13:49:51;101314.88;;;32.53;30.89
4449;BME280;2237;51.870;6.160;2022-08-03T13:52:28;101325.94;;;32.91;31.44
4449;BME280;2237;51.870;6.160;2022-08-03T13:54:54;101325.91;;;34.82;28.60
4449;BME280;2237;51.870;6.160;2022-08-03T13:57:20;101327.97;;;37.99;23.34
4449;BME280;2237;51.870;6.160;2022-08-03T14:00:07;101321.97;;;42.51;18.61